createdAt,value
2023-05-23T00:01:19.823Z,8.10
2023-05-23T00:03:48.653Z,6.80
2023-05-23T00:06:17.420Z,7.00
2023-05-23T00:08:45.491Z,7.05
2023-05-23T00:11:14.787Z,6.90
2023-05-23T00:13:42.942Z,6.62
2023-05-23T00:16:11.057Z,7.47
2023-05-23T00:18:39.758Z,7.28
2023-05-23T00:21:07.754Z,7.07
2023-05-23T00:23:35.868Z,7.28
2023-05-23T00:26:04.120Z,6.62
2023-05-23T00:28:32.225Z,6.53
2023-05-23T00:31:00.279Z,7.12
2023-05-23T00:33:28.334Z,7.15
2023-05-23T00:35:56.402Z,7.72
2023-05-23T00:38:24.390Z,9.18
2023-05-23T00:40:52.467Z,6.78
2023-05-23T00:43:22.665Z,7.85
2023-05-23T00:45:50.911Z,7.60
2023-05-23T00:48:19.575Z,7.30
2023-05-23T00:50:47.978Z,7.55
2023-05-23T00:53:16.074Z,7.10
2023-05-23T00:55:44.960Z,7.80
2023-05-23T00:58:13.066Z,7.03
2023-05-23T01:00:41.203Z,9.93
2023-05-23T01:03:09.351Z,7.28
2023-05-23T01:05:37.450Z,7.97
2023-05-23T01:08:05.674Z,7.57
2023-05-23T01:10:33.721Z,7.70
2023-05-23T01:13:32.359Z,7.65
2023-05-23T01:16:40.693Z,7.35
2023-05-23T01:19:30.755Z,6.90
2023-05-23T01:21:58.851Z,13.45
2023-05-23T01:25:02.781Z,7.05
2023-05-23T01:27:51.573Z,8.10
2023-05-23T01:30:21.118Z,8.48
2023-05-23T01:32:50.298Z,7.28
2023-05-23T01:35:22.120Z,7.85
2023-05-23T01:37:50.095Z,7.90
2023-05-23T01:40:18.076Z,8.00
2023-05-23T01:42:46.237Z,8.30
2023-05-23T01:45:14.293Z,8.70
2023-05-23T01:47:42.727Z,7.93
2023-05-23T01:50:11.378Z,7.62
2023-05-23T01:52:39.310Z,7.93
2023-05-23T01:55:11.082Z,8.65
2023-05-23T01:57:39.521Z,8.32
2023-05-23T02:00:09.620Z,8.38
2023-05-23T02:02:37.843Z,8.75
2023-05-23T02:05:06.396Z,7.95
2023-05-23T02:07:34.535Z,8.55
2023-05-23T02:10:02.555Z,8.27
2023-05-23T02:12:30.577Z,7.35
2023-05-23T02:14:58.732Z,8.15
2023-05-23T02:17:26.960Z,7.62
2023-05-23T02:19:55.288Z,8.07
2023-05-23T02:22:26.976Z,8.13
2023-05-23T02:24:54.977Z,10.07
2023-05-23T02:27:23.030Z,9.27
2023-05-23T02:29:51.111Z,10.77
2023-05-23T02:32:19.189Z,9.57
2023-05-23T02:34:48.160Z,10.48
2023-05-23T02:37:16.217Z,8.65
2023-05-23T02:39:47.326Z,8.82
2023-05-23T02:42:15.398Z,10.27
2023-05-23T02:44:43.520Z,8.70
2023-05-23T02:47:12.215Z,9.45
2023-05-23T02:49:40.344Z,11.57
2023-05-23T02:52:08.363Z,8.73
2023-05-23T02:54:36.371Z,8.93
2023-05-23T02:57:04.388Z,8.82
2023-05-23T02:59:32.776Z,8.65
2023-05-23T05:18:24.847Z,10.13
2023-05-23T05:20:52.836Z,10.55
2023-05-23T05:23:20.852Z,10.88
2023-05-23T05:25:49.297Z,10.88
2023-05-23T05:28:17.308Z,11.52
2023-05-23T05:30:47.630Z,12.23
2023-05-23T05:33:15.801Z,10.10
2023-05-23T05:35:43.802Z,11.27
2023-05-23T05:38:12.494Z,9.85
2023-05-23T05:40:40.759Z,9.90
2023-05-23T05:43:08.965Z,10.38
2023-05-23T05:45:37.369Z,10.63
2023-05-23T05:48:05.938Z,11.20
2023-05-23T05:50:33.935Z,12.57
2023-05-23T05:53:02.125Z,11.70
2023-05-23T05:55:30.324Z,12.45
2023-05-23T05:57:58.469Z,12.00
2023-05-23T06:00:26.955Z,12.07
2023-05-23T06:02:58.664Z,13.73
2023-05-23T06:05:27.334Z,14.45
2023-05-23T06:07:55.422Z,12.88
2023-05-23T06:10:23.548Z,16.80
2023-05-23T06:12:51.758Z,15.38
2023-05-23T06:15:20.433Z,17.55
2023-05-23T06:17:49.195Z,15.95
2023-05-23T06:20:17.379Z,18.55
2023-05-23T06:22:45.786Z,16.37
2023-05-23T06:25:13.945Z,16.08
2023-05-23T06:27:42.012Z,16.85
2023-05-23T06:30:11.102Z,12.55
2023-05-23T06:32:39.530Z,13.75
2023-05-23T06:35:08.385Z,11.80
2023-05-23T06:37:36.736Z,11.60
2023-05-23T06:40:05.042Z,10.80
2023-05-23T06:42:33.279Z,13.32
2023-05-23T06:45:01.492Z,13.27
2023-05-23T06:47:30.241Z,13.27
2023-05-23T06:49:58.485Z,14.38
2023-05-23T06:52:26.645Z,13.50
2023-05-23T06:54:54.819Z,15.32
2023-05-23T06:57:25.830Z,11.57
2023-05-23T06:59:54.697Z,11.80
2023-05-23T07:02:22.916Z,11.48
2023-05-23T07:04:51.096Z,12.43
2023-05-23T07:07:19.747Z,12.32
2023-05-23T07:09:48.543Z,11.57
2023-05-23T07:12:16.929Z,13.43
2023-05-23T07:14:45.165Z,13.50
2023-05-23T07:17:13.288Z,12.77
2023-05-23T07:19:44.411Z,12.25
2023-05-23T07:22:12.491Z,13.30
2023-05-23T07:24:40.664Z,14.10
2023-05-23T07:27:08.741Z,14.20
2023-05-23T07:29:36.970Z,12.93
2023-05-23T07:32:05.276Z,13.32
2023-05-23T07:34:33.604Z,13.45
2023-05-23T07:37:01.828Z,14.77
2023-05-23T07:39:29.987Z,13.70
2023-05-23T07:41:58.044Z,14.85
2023-05-23T07:44:26.111Z,14.25
2023-05-23T07:46:54.364Z,14.00
2023-05-23T07:49:22.677Z,15.25
2023-05-23T07:51:50.850Z,15.80
2023-05-23T07:54:18.865Z,14.52
2023-05-23T07:56:47.570Z,15.18
2023-05-23T07:59:15.803Z,17.33
2023-05-23T08:01:43.993Z,16.48
2023-05-23T08:04:12.190Z,16.87
2023-05-23T08:06:52.088Z,16.02
2023-05-23T08:09:28.607Z,18.17
2023-05-23T08:11:56.824Z,15.32
2023-05-23T08:14:29.454Z,18.35
2023-05-23T08:17:06.651Z,17.98
2023-05-23T08:19:34.848Z,16.00
2023-05-23T08:22:03.264Z,15.75
2023-05-23T08:24:32.123Z,15.68
2023-05-23T08:27:00.215Z,16.15
2023-05-23T08:29:29.697Z,15.88
2023-05-23T08:31:58.068Z,18.40
2023-05-23T08:34:26.161Z,17.90
2023-05-23T08:36:54.456Z,16.25
2023-05-23T08:39:22.600Z,17.30
2023-05-23T08:41:51.088Z,18.00
2023-05-23T08:44:19.149Z,16.58
2023-05-23T08:46:48.006Z,19.20
2023-05-23T08:49:16.602Z,20.37
2023-05-23T08:51:45.103Z,18.52
2023-05-23T08:54:14.650Z,18.60
2023-05-23T08:56:42.910Z,17.70
2023-05-23T08:59:11.816Z,17.25
2023-05-23T09:01:41.255Z,20.27
2023-05-23T09:04:09.505Z,21.77
2023-05-23T09:06:38.266Z,17.58
2023-05-23T09:09:06.572Z,19.30
2023-05-23T09:11:36.433Z,20.52
2023-05-23T09:14:06.480Z,18.15
2023-05-23T09:16:36.251Z,19.33
2023-05-23T09:19:14.791Z,19.08
2023-05-23T09:21:49.441Z,18.25
2023-05-23T09:24:17.549Z,17.55
2023-05-23T09:26:49.029Z,15.88
2023-05-23T09:29:21.041Z,18.20
2023-05-23T09:31:49.780Z,15.40
2023-05-23T09:34:18.001Z,19.98
2023-05-23T09:36:46.592Z,15.45
2023-05-23T09:39:14.742Z,14.45
2023-05-23T09:41:42.932Z,19.75
2023-05-23T09:44:11.140Z,13.25
2023-05-23T09:46:42.271Z,19.60
2023-05-23T09:49:18.200Z,19.35
2023-05-23T09:51:46.649Z,17.00
2023-05-23T09:54:14.745Z,16.48
2023-05-23T09:56:45.075Z,20.02
2023-05-23T09:59:13.465Z,16.33
2023-05-23T10:01:42.806Z,16.62
2023-05-23T10:04:10.996Z,16.98
2023-05-23T10:06:51.612Z,16.42
2023-05-23T10:09:20.194Z,17.67
2023-05-23T10:12:50.141Z,16.65
2023-05-23T10:15:18.768Z,19.30
2023-05-23T10:18:04.102Z,19.85
2023-05-23T10:20:35.424Z,18.27
2023-05-23T10:23:03.989Z,17.52
2023-05-23T10:25:32.193Z,16.55
2023-05-23T10:28:03.162Z,16.42
2023-05-23T10:30:32.358Z,18.08
2023-05-23T10:33:00.498Z,16.90
2023-05-23T10:35:37.695Z,16.80
2023-05-23T10:38:42.920Z,15.52
2023-05-23T10:41:18.198Z,17.80
2023-05-23T10:43:53.482Z,17.20
2023-05-23T10:46:23.189Z,16.70
2023-05-23T10:48:55.520Z,15.65
2023-05-23T10:51:24.065Z,15.55
2023-05-23T10:53:55.465Z,18.15
2023-05-23T10:56:27.330Z,15.63
2023-05-23T10:58:56.350Z,17.23
2023-05-23T11:01:25.545Z,15.13
2023-05-23T11:03:55.922Z,14.68
2023-05-23T11:06:35.205Z,16.17
2023-05-23T11:09:06.964Z,15.77
2023-05-23T11:12:01.298Z,15.25
2023-05-23T11:14:39.304Z,17.10
2023-05-23T11:17:13.815Z,16.17
2023-05-23T11:19:42.199Z,13.90
2023-05-23T11:22:10.652Z,12.57
2023-05-23T11:24:54.895Z,10.50
2023-05-23T11:27:30.867Z,9.00
2023-05-23T11:30:14.963Z,9.18
2023-05-23T11:32:43.692Z,9.27
2023-05-23T11:35:12.625Z,9.55
2023-05-23T11:37:41.254Z,11.27
2023-05-23T11:40:34.355Z,9.50
2023-05-23T11:43:07.349Z,11.68
2023-05-23T11:45:36.532Z,10.15
2023-05-23T11:48:14.752Z,9.20
2023-05-23T11:50:53.683Z,8.70
2023-05-23T11:53:23.110Z,9.20
2023-05-23T11:56:01.463Z,7.70
2023-05-23T11:58:36.776Z,8.35
2023-05-23T12:01:16.730Z,8.05
2023-05-23T12:03:49.362Z,8.18
2023-05-23T12:06:19.901Z,8.63
2023-05-23T12:08:51.061Z,8.90
2023-05-23T12:11:19.289Z,9.45
2023-05-23T12:13:47.436Z,9.48
2023-05-23T12:16:18.672Z,9.68
2023-05-23T12:18:48.304Z,10.38
2023-05-23T12:21:18.146Z,9.93
2023-05-23T12:23:46.557Z,10.50
2023-05-23T12:26:14.676Z,10.02
2023-05-23T12:28:44.891Z,8.60
2023-05-23T12:31:15.293Z,7.65
2023-05-23T12:33:47.349Z,8.10
2023-05-23T12:36:16.650Z,8.88
2023-05-23T12:38:46.880Z,11.05
2023-05-23T12:41:21.041Z,10.82
2023-05-23T12:43:53.549Z,9.50
2023-05-23T12:46:22.895Z,10.90
2023-05-23T12:48:51.126Z,10.25
2023-05-23T12:51:19.288Z,10.45
2023-05-23T12:53:47.348Z,10.15
2023-05-23T12:56:15.592Z,10.70
2023-05-23T12:58:43.894Z,9.80
2023-05-23T13:01:12.784Z,10.70
2023-05-23T13:03:40.949Z,10.65
2023-05-23T13:06:09.377Z,10.45
2023-05-23T13:08:37.437Z,11.52
2023-05-23T13:11:05.779Z,12.30
2023-05-23T13:13:37.070Z,12.68
2023-05-23T13:16:05.255Z,11.48
2023-05-23T13:18:33.680Z,10.32
2023-05-23T13:21:01.813Z,10.02
2023-05-23T13:23:30.086Z,9.15
2023-05-23T13:25:59.531Z,10.82
2023-05-23T13:28:27.612Z,10.55
2023-05-23T13:30:55.863Z,12.00
2023-05-23T13:33:24.900Z,10.55
2023-05-23T13:35:53.999Z,12.90
2023-05-23T13:38:23.401Z,11.82
2023-05-23T13:40:54.300Z,12.73
2023-05-23T13:43:22.438Z,13.10
2023-05-23T13:45:50.541Z,12.23
2023-05-23T13:48:18.583Z,13.10
2023-05-23T13:50:46.961Z,13.00
2023-05-23T13:53:18.295Z,14.70
2023-05-23T13:55:46.548Z,16.55
2023-05-23T13:58:14.775Z,15.90
2023-05-23T14:00:48.901Z,15.32
2023-05-23T14:03:17.295Z,15.00
2023-05-23T14:05:45.616Z,15.98
2023-05-23T14:08:15.315Z,15.35
2023-05-23T14:10:43.637Z,14.73
2023-05-23T14:13:12.374Z,16.42
2023-05-23T14:15:40.543Z,16.95
2023-05-23T14:18:09.025Z,15.70
2023-05-23T14:20:37.468Z,17.45
2023-05-23T14:23:05.638Z,16.83
2023-05-23T14:25:33.795Z,19.50
2023-05-23T14:28:01.937Z,18.55
2023-05-23T14:30:30.108Z,18.00
2023-05-23T14:32:59.326Z,18.62
2023-05-23T14:35:27.737Z,24.95
2023-05-23T14:37:55.745Z,22.75
2023-05-23T14:40:23.943Z,21.60
2023-05-23T14:42:52.020Z,21.70
2023-05-23T14:45:20.140Z,19.50
2023-05-23T14:47:48.340Z,18.80
2023-05-23T14:50:17.334Z,20.65
2023-05-23T14:52:45.748Z,20.30
2023-05-23T14:55:14.016Z,19.60
2023-05-23T14:57:42.196Z,18.75
2023-05-23T15:00:11.697Z,20.42
2023-05-23T15:02:40.062Z,19.58
2023-05-23T15:05:09.167Z,19.83
2023-05-23T15:07:37.499Z,19.12
2023-05-23T15:10:06.789Z,20.45
2023-05-23T15:12:34.887Z,19.48
2023-05-23T15:15:05.806Z,18.52
2023-05-23T15:17:34.518Z,17.70
2023-05-23T15:20:04.435Z,18.58
2023-05-23T15:22:39.224Z,17.58
2023-05-23T15:25:09.126Z,17.33
2023-05-23T15:27:37.706Z,17.33
2023-05-23T15:30:06.302Z,16.75
2023-05-23T15:32:34.446Z,19.62
2023-05-23T15:35:02.590Z,16.90
2023-05-23T15:37:30.798Z,17.37
2023-05-23T15:39:58.921Z,17.77
2023-05-23T15:42:26.976Z,18.20
2023-05-23T15:44:55.291Z,16.45
2023-05-23T15:47:23.362Z,17.35
2023-05-23T15:49:51.617Z,17.35
2023-05-23T15:52:19.724Z,16.42
2023-05-23T15:54:47.768Z,17.30
2023-05-23T15:57:19.055Z,17.12
2023-05-23T15:59:47.297Z,16.52
2023-05-23T16:02:17.151Z,16.48
2023-05-23T16:04:45.242Z,15.52
2023-05-23T16:07:13.568Z,16.30
2023-05-23T16:09:41.760Z,16.27
2023-05-23T16:12:10.076Z,17.23
2023-05-23T16:14:38.166Z,16.50
2023-05-23T16:17:08.312Z,15.63
2023-05-23T16:19:36.616Z,16.20
2023-05-23T16:22:04.783Z,15.25
2023-05-23T16:24:32.905Z,16.25
2023-05-23T16:27:05.833Z,16.85
2023-05-23T16:29:34.061Z,16.92
2023-05-23T16:32:02.293Z,14.87
2023-05-23T16:34:30.444Z,15.05
2023-05-23T16:36:59.318Z,15.57
2023-05-23T16:39:27.497Z,14.90
2023-05-23T16:41:56.210Z,15.32
2023-05-23T16:44:25.116Z,14.48
2023-05-23T16:46:53.705Z,15.02
2023-05-23T16:49:21.728Z,14.40
2023-05-23T16:51:49.948Z,14.10
2023-05-23T16:54:18.173Z,15.38
2023-05-23T16:56:46.259Z,14.10
2023-05-23T16:59:14.468Z,14.05
2023-05-23T17:01:42.903Z,13.27
2023-05-23T17:04:11.112Z,12.30
2023-05-23T17:06:39.426Z,11.93
2023-05-23T17:09:07.743Z,11.18
2023-05-23T17:11:35.782Z,10.00
2023-05-23T17:14:04.164Z,11.35
2023-05-23T17:16:34.609Z,9.73
2023-05-23T17:19:02.714Z,9.35
2023-05-23T17:21:30.849Z,9.13
2023-05-23T17:23:58.975Z,8.02
2023-05-23T17:26:28.599Z,8.43
2023-05-23T17:28:56.652Z,7.97
2023-05-23T17:31:24.757Z,7.82
2023-05-23T17:33:52.862Z,7.47
2023-05-23T17:36:20.983Z,8.38
2023-05-23T17:38:49.021Z,8.07
2023-05-23T17:41:17.450Z,8.00
2023-05-23T17:43:45.568Z,7.75
2023-05-23T17:46:13.727Z,7.95
2023-05-23T17:48:47.640Z,7.03
2023-05-23T17:51:16.402Z,6.72
2023-05-23T17:53:44.845Z,7.78
2023-05-23T17:56:12.950Z,6.72
2023-05-23T17:58:43.901Z,5.90
2023-05-23T18:01:15.861Z,9.20
2023-05-23T18:03:44.240Z,6.18
2023-05-23T18:06:12.445Z,5.87
2023-05-23T18:08:42.372Z,5.93
2023-05-23T18:11:10.408Z,6.82
2023-05-23T18:13:38.703Z,6.43
2023-05-23T18:16:06.875Z,7.03
2023-05-23T18:18:35.082Z,6.18
2023-05-23T18:21:03.289Z,5.07
2023-05-23T18:23:31.357Z,5.55
2023-05-23T18:25:59.457Z,4.90
2023-05-23T18:28:27.760Z,4.60
2023-05-23T18:30:55.881Z,4.93
2023-05-23T18:33:24.068Z,5.35
2023-05-23T18:35:52.813Z,4.40
2023-05-23T18:38:21.006Z,4.47
2023-05-23T18:40:49.090Z,4.28
2023-05-23T18:43:18.767Z,4.68
2023-05-23T18:45:46.981Z,4.93
2023-05-23T18:48:16.035Z,4.50
2023-05-23T18:50:44.441Z,4.37
2023-05-23T18:53:12.653Z,5.10
2023-05-23T18:55:40.751Z,4.22
2023-05-23T18:58:08.929Z,5.78
2023-05-23T19:00:37.131Z,3.92
2023-05-23T19:03:05.852Z,4.03
2023-05-23T19:05:34.022Z,4.55
2023-05-23T19:08:02.365Z,4.55
2023-05-23T19:10:30.797Z,4.80
2023-05-23T19:12:58.965Z,4.25
2023-05-23T19:15:27.052Z,4.87
2023-05-23T19:17:55.283Z,4.90
2023-05-23T19:20:23.506Z,4.37
2023-05-23T19:22:52.575Z,4.80
2023-05-23T19:25:22.185Z,4.28
2023-05-23T19:27:50.311Z,4.50
2023-05-23T19:30:18.679Z,5.80
2023-05-23T19:32:47.030Z,4.43
2023-05-23T19:35:17.044Z,4.60
2023-05-23T19:37:45.588Z,4.22
2023-05-23T19:40:14.777Z,5.12
2023-05-23T19:42:43.030Z,4.55
2023-05-23T19:45:11.885Z,4.28
2023-05-23T19:47:40.142Z,4.62
2023-05-23T19:50:10.554Z,4.12
2023-05-23T19:52:38.922Z,4.10
2023-05-23T19:55:08.098Z,6.80
2023-05-23T19:57:36.407Z,3.75
2023-05-23T20:00:06.612Z,4.15
2023-05-23T20:02:35.422Z,3.90
2023-05-23T20:05:03.853Z,4.45
2023-05-23T20:07:32.388Z,3.50
2023-05-23T20:10:00.628Z,5.75
2023-05-23T20:12:28.925Z,4.10
2023-05-23T20:14:57.304Z,4.75
2023-05-23T20:17:25.519Z,3.37
2023-05-23T20:19:53.925Z,4.10
2023-05-23T20:22:22.207Z,3.30
2023-05-23T20:24:50.522Z,3.70
2023-05-23T20:27:19.239Z,4.93
2023-05-23T20:29:47.694Z,4.65
2023-05-23T20:32:16.267Z,3.50
2023-05-23T20:34:44.688Z,3.65
2023-05-23T20:37:15.008Z,4.05
2023-05-23T20:39:43.341Z,3.97
2023-05-23T20:42:16.492Z,3.60
2023-05-23T20:44:44.932Z,4.05
2023-05-23T20:47:13.544Z,3.60
2023-05-23T20:49:41.950Z,3.60
2023-05-23T20:52:10.369Z,3.75
2023-05-23T20:54:39.217Z,5.22
2023-05-23T20:57:07.559Z,3.97
2023-05-23T20:59:35.984Z,5.30
2023-05-23T21:02:04.270Z,3.53
2023-05-23T21:04:32.565Z,4.03
2023-05-23T21:07:02.651Z,4.53
2023-05-23T21:09:31.157Z,3.75
2023-05-23T21:11:59.238Z,3.72
2023-05-23T21:14:27.475Z,4.12
2023-05-23T21:16:55.724Z,4.07
2023-05-23T21:19:23.994Z,3.90
2023-05-23T21:21:54.503Z,4.03
2023-05-23T21:24:23.682Z,3.87
2023-05-23T21:26:53.090Z,3.72
2023-05-23T21:29:21.220Z,4.82
2023-05-23T21:31:49.793Z,4.30
2023-05-23T21:34:23.768Z,3.50
2023-05-23T21:36:53.537Z,5.55
2023-05-23T21:39:21.906Z,17.98
2023-05-23T21:41:50.101Z,5.20
2023-05-23T21:44:19.018Z,5.15
2023-05-23T21:46:47.476Z,5.68
2023-05-23T21:49:15.615Z,5.45
2023-05-23T21:51:43.798Z,5.28
2023-05-23T21:54:12.658Z,5.72
2023-05-23T21:56:40.803Z,5.20
2023-05-23T21:59:09.368Z,8.55
2023-05-23T22:01:37.967Z,5.30
2023-05-23T22:04:06.815Z,6.32
2023-05-23T22:06:35.090Z,6.37
2023-05-23T22:09:03.778Z,6.03
2023-05-23T22:11:35.176Z,6.07
2023-05-23T22:14:03.804Z,8.57
2023-05-23T22:16:35.090Z,5.43
2023-05-23T22:19:03.495Z,6.43
2023-05-23T22:21:31.907Z,5.20
2023-05-23T22:24:00.231Z,6.45
2023-05-23T22:26:28.740Z,5.57
2023-05-23T22:28:57.232Z,5.85
2023-05-23T22:31:25.347Z,6.60
2023-05-23T22:33:53.575Z,5.50
2023-05-23T22:36:23.334Z,5.55
2023-05-23T22:38:51.554Z,5.35
2023-05-23T22:41:19.806Z,6.22
2023-05-23T22:43:48.469Z,5.72
2023-05-23T22:46:16.613Z,5.60
2023-05-23T22:48:44.961Z,6.80
2023-05-23T22:51:15.729Z,5.90
2023-05-23T22:53:44.711Z,5.82
2023-05-23T22:56:12.911Z,6.45
2023-05-23T22:58:41.044Z,5.70
2023-05-23T23:01:09.241Z,10.02
2023-05-23T23:03:37.418Z,5.45
2023-05-23T23:06:07.661Z,5.50
2023-05-23T23:08:35.808Z,5.43
2023-05-23T23:11:03.980Z,6.45
2023-05-23T23:13:32.180Z,8.60
2023-05-23T23:16:00.372Z,5.45
2023-05-23T23:18:28.547Z,4.87
2023-05-23T23:20:56.820Z,5.25
2023-05-23T23:23:24.956Z,7.30
2023-05-23T23:25:53.569Z,5.37
2023-05-23T23:28:21.653Z,5.00
2023-05-23T23:30:49.740Z,5.70
2023-05-23T23:33:17.978Z,6.03
2023-05-23T23:35:49.803Z,6.03
2023-05-23T23:38:19.339Z,6.15
2023-05-23T23:40:47.456Z,5.68
2023-05-23T23:43:15.578Z,7.87
2023-05-23T23:45:43.855Z,5.32
2023-05-23T23:48:12.021Z,5.65
2023-05-23T23:50:40.271Z,5.12
2023-05-23T23:53:09.131Z,5.50
2023-05-23T23:55:37.258Z,5.22
2023-05-23T23:58:05.358Z,4.65
